Time;durP1;ratioP1;P1;durP2;ratioP2;P2;SDS_P1;SDS_P2;PMS_P1;PMS_P2;Temp;Humidity;BMP_temperature;BMP_pressure;BME280_temperature;BME280_humidity;BME280_pressure;Samples;Min_cycle;Max_cycle;Signal;HPM_P1;HPM_P2
2023/03/15 00:01:45;;;;;;;;;;;;;;;;;;2210380;67;1729;-25
2023/03/15 00:04:15;;;;;;;;;;;;;;;;;;2210005;67;1939;-25
2023/03/15 00:06:46;;;;;;;;;;;;;;;;;;2210026;67;2177;-24
2023/03/15 00:09:16;;;;;;;;;;;;;;;;;;2212319;66;1231;-25
2023/03/15 00:11:48;;;;;;;;;;;;;;;;;;2209819;59;1362;-25
2023/03/15 00:14:18;;;;;;;;;;;;;;;;;;2209924;67;1624;-25
2023/03/15 00:16:48;;;;;;;;;;;;;;;;;;2209293;67;1461;-25
2023/03/15 00:19:18;;;;;;;;;;;;;;;;;;2209856;67;1366;-25
2023/03/15 00:21:48;;;;;;;;;;;;;;;;;;2210195;67;1677;-25
2023/03/15 00:24:19;;;;;;;;;;;;;;;;;;2210690;67;1933;-24
2023/03/15 00:26:49;;;;;;;;;;;;;;;;;;2210174;67;1658;-25
2023/03/15 00:29:19;;;;;;;;;;;;;;;;;;2209863;67;1474;-24
2023/03/15 00:31:50;;;;;;;;;;;;;;;;;;2209329;67;1402;-24
2023/03/15 00:34:24;;;;;;;;;;;;;;;;;;2209955;67;1127;-25
2023/03/15 00:36:54;;;;;;;;;;;;;;;;;;2209483;67;1734;-24
2023/03/15 00:39:25;;;;;;;;;;;;;;;;;;2209950;67;1222;-24
2023/03/15 00:41:58;;;;;;;;;;;;;;;;;;2208294;67;1340;-24
2023/03/15 00:44:29;;;;;;;;;;;;;;;;;;2209896;67;1940;-24
2023/03/15 00:46:59;;;;;;;;;;;;;;;;;;2209361;67;1323;-24
2023/03/15 00:49:31;;;;;;;;;;;;;;;;;;2209290;67;1130;-24
2023/03/15 00:52:01;;;;;;;;;;;;;;;;;;2210258;67;1700;-24
2023/03/15 00:54:32;;;;;;;;;;;;;;;;;;2208650;67;1709;-24
2023/03/15 00:57:02;;;;;;;;;;;;;;;;;;2208620;66;1741;-24
2023/03/15 00:59:34;;;;;;;;;;;;;;;;;;2210118;67;1155;-24
2023/03/15 01:02:04;;;;;;;;;;;;;;;;;;2209140;67;1647;-24
2023/03/15 01:04:34;;;;;;;;;;;;;;;;;;2209544;67;1991;-24
2023/03/15 01:07:05;;;;;;;;;;;;;;;;;;2209510;67;1670;-24
2023/03/15 01:09:35;;;;;;;;;;;;;;;;;;2209137;59;1801;-24
2023/03/15 01:12:05;;;;;;;;;;;;;;;;;;2209758;67;1680;-24
2023/03/15 01:14:37;;;;;;;;;;;;;;;;;;2210604;67;1843;-24
2023/03/15 01:17:08;;;;;;;;;;;;;;;;;;2209840;67;2008;-24
2023/03/15 01:19:38;;;;;;;;;;;;;;;;;;2209656;67;1384;-24
2023/03/15 01:22:11;;;;;;;;;;;;;;;;;;2208421;67;1863;-24
2023/03/15 01:24:41;;;;;;;;;;;;;;;;;;2208977;67;1951;-24
2023/03/15 01:27:12;;;;;;;;;;;;;;;;;;2209490;67;1900;-24
2023/03/15 01:29:42;;;;;;;;;;;;;;;;;;2209082;67;1626;-24
2023/03/15 01:32:12;;;;;;;;;;;;;;;;;;2209680;67;1384;-24
2023/03/15 01:34:42;;;;;;;;;;;;;;;;;;2209160;67;1220;-24
2023/03/15 01:37:13;;;;;;;;;;;;;;;;;;2210253;67;1745;-24
2023/03/15 01:39:43;;;;;;;;;;;;;;;;;;2209174;67;1119;-24
2023/03/15 01:42:13;;;;;;;;;;;;;;;;;;2209668;67;1266;-24
2023/03/15 01:44:46;;;;;;;;;;;;;;;;;;2210413;59;1938;-24
2023/03/15 01:47:17;;;;;;;;;;;;;;;;;;2209570;67;1654;-24
2023/03/15 01:49:51;;;;;;;;;;;;;;;;;;2209244;67;1284;-24
2023/03/15 01:52:24;;;;;;;;;;;;;;;;;;2210535;67;1968;-24
2023/03/15 01:54:54;;;;;;;;;;;;;;;;;;2210799;67;2467;-24
2023/03/15 01:57:27;;;;;;;;;;;;;;;;;;2211205;67;1244;-24
2023/03/15 02:00:01;;;;;;;;;;;;;;;;;;2208532;67;1207;-24
2023/03/15 02:02:31;;;;;;;;;;;;;;;;;;2208601;67;1473;-24
2023/03/15 02:05:14;;;;;;;;;;;;;;;;;;2209408;67;1952;-24
2023/03/15 02:07:48;;;;;;;;;;;;;;;;;;2209254;67;1368;-24
2023/03/15 02:10:25;;;;;;;;;;;;;;;;;;2212000;59;1532;-24
2023/03/15 02:12:57;;;;;;;;;;;;;;;;;;2208742;59;1921;-23
2023/03/15 02:15:27;;;;;;;;;;;;;;;;;;2208668;67;1357;-24
2023/03/15 02:17:57;;;;;;;;;;;;;;;;;;2209040;67;1310;-24
2023/03/15 02:20:27;;;;;;;;;;;;;;;;;;2210541;59;1201;-24
2023/03/15 02:23:02;;;;;;;;;;;;;;;;;;2208544;67;1993;-23
2023/03/15 02:25:37;;;;;;;;;;;;;;;;;;2208895;67;1561;-24
2023/03/15 02:28:10;;;;;;;;;;;;;;;;;;2209839;67;1912;-23
2023/03/15 02:30:40;;;;;;;;;;;;;;;;;;2209622;67;1330;-23
2023/03/15 02:33:17;;;;;;;;;;;;;;;;;;2209802;67;1873;-24
2023/03/15 02:35:48;;;;;;;;;;;;;;;;;;2208369;67;2761;-23
2023/03/15 02:38:18;;;;;;;;;;;;;;;;;;2209560;67;1753;-24
2023/03/15 02:40:50;;;;;;;;;;;;;;;;;;2209046;67;1753;-23
2023/03/15 02:43:23;;;;;;;;;;;;;;;;;;2208832;67;1978;-23
2023/03/15 02:45:54;;;;;;;;;;;;;;;;;;2208376;67;1179;-23
2023/03/15 02:48:24;;;;;;;;;;;;;;;;;;2209650;67;1275;-23
2023/03/15 02:50:55;;;;;;;;;;;;;;;;;;2208626;67;1214;-24
2023/03/15 02:53:25;;;;;;;;;;;;;;;;;;2209840;67;1419;-23
2023/03/15 02:55:55;;;;;;;;;;;;;;;;;;2209182;67;1776;-23
2023/03/15 02:58:26;;;;;;;;;;;;;;;;;;2209624;67;1213;-23
2023/03/15 03:00:56;;;;;;;;;;;;;;;;;;2209047;59;1271;-23
2023/03/15 03:03:26;;;;;;;;;;;;;;;;;;2209353;67;1985;-23
2023/03/15 03:05:56;;;;;;;;;;;;;;;;;;2209449;67;1106;-23
2023/03/15 03:08:26;;;;;;;;;;;;;;;;;;2209468;67;1370;-23
2023/03/15 03:10:57;;;;;;;;;;;;;;;;;;2210453;67;1285;-24
2023/03/15 03:13:27;;;;;;;;;;;;;;;;;;2214117;59;1579;-25
2023/03/15 03:15:57;;;;;;;;;;;;;;;;;;2210773;67;1280;-25
2023/03/15 03:18:28;;;;;;;;;;;;;;;;;;2209611;67;1719;-25
2023/03/15 03:20:58;;;;;;;;;;;;;;;;;;2209567;67;1403;-25
2023/03/15 03:23:29;;;;;;;;;;;;;;;;;;2210268;67;1910;-25
2023/03/15 03:25:59;;;;;;;;;;;;;;;;;;2208360;67;1217;-25
2023/03/15 03:28:30;;;;;;;;;;;;;;;;;;2210896;67;1243;-25
2023/03/15 03:31:01;;;;;;;;;;;;;;;;;;2209456;67;1238;-25
2023/03/15 03:33:31;;;;;;;;;;;;;;;;;;2209448;67;1803;-25
2023/03/15 03:36:03;;;;;;;;;;;;;;;;;;2208242;67;1369;-25
2023/03/15 03:38:33;;;;;;;;;;;;;;;;;;2209608;67;1222;-25
2023/03/15 03:41:03;;;;;;;;;;;;;;;;;;2209249;67;1205;-25
2023/03/15 03:43:34;;;;;;;;;;;;;;;;;;2208991;67;1991;-25
2023/03/15 03:46:04;;;;;;;;;;;;;;;;;;2209246;67;1261;-25
2023/03/15 03:48:34;;;;;;;;;;;;;;;;;;2210355;67;1336;-25
2023/03/15 03:51:05;;;;;;;;;;;;;;;;;;2210080;67;1276;-25
2023/03/15 03:53:35;;;;;;;;;;;;;;;;;;2209621;67;1357;-25
2023/03/15 03:56:06;;;;;;;;;;;;;;;;;;2209894;67;1662;-25
2023/03/15 03:58:36;;;;;;;;;;;;;;;;;;2209896;66;1505;-25
2023/03/15 04:01:07;;;;;;;;;;;;;;;;;;2209706;67;1202;-25
2023/03/15 04:03:37;;;;;;;;;;;;;;;;;;2209408;67;2050;-25
2023/03/15 04:06:07;;;;;;;;;;;;;;;;;;2210005;67;1179;-25
2023/03/15 04:08:37;;;;;;;;;;;;;;;;;;2209201;59;1457;-25
2023/03/15 04:11:08;;;;;;;;;;;;;;;;;;2210029;59;1665;-25
2023/03/15 04:13:38;;;;;;;;;;;;;;;;;;2210205;67;1155;-25
2023/03/15 04:16:08;;;;;;;;;;;;;;;;;;2210006;67;1285;-25
2023/03/15 04:18:39;;;;;;;;;;;;;;;;;;2210219;67;1593;-25
2023/03/15 04:21:09;;;;;;;;;;;;;;;;;;2210949;67;1248;-25
2023/03/15 04:23:39;;;;;;;;;;;;;;;;;;2208911;59;2150;-25
2023/03/15 04:26:10;;;;;;;;;;;;;;;;;;2210675;67;1821;-25
2023/03/15 04:28:41;;;;;;;;;;;;;;;;;;2210344;67;1102;-25
2023/03/15 04:31:13;;;;;;;;;;;;;;;;;;2210003;67;1880;-25
2023/03/15 04:33:43;;;;;;;;;;;;;;;;;;2210013;67;1405;-25
2023/03/15 04:36:19;;;;;;;;;;;;;;;;;;2210487;67;1147;-25
2023/03/15 04:39:04;;;;;;;;;;;;;;;;;;2211929;59;1166;-25
2023/03/15 04:41:34;;;;;;;;;;;;;;;;;;2210427;67;1229;-25
2023/03/15 04:44:04;;;;;;;;;;;;;;;;;;2210465;67;1965;-25
2023/03/15 04:46:35;;;;;;;;;;;;;;;;;;2210203;67;1167;-25
2023/03/15 04:49:05;;;;;;;;;;;;;;;;;;2210535;67;1803;-25
2023/03/15 04:51:35;;;;;;;;;;;;;;;;;;2209894;67;1673;-25
2023/03/15 04:54:05;;;;;;;;;;;;;;;;;;2209917;67;1325;-25
2023/03/15 04:56:36;;;;;;;;;;;;;;;;;;2209708;67;1794;-25
2023/03/15 04:59:09;;;;;;;;;;;;;;;;;;2209650;59;1413;-25
2023/03/15 05:01:40;;;;;;;;;;;;;;;;;;2209496;67;1278;-25
2023/03/15 05:04:10;;;;;;;;;;;;;;;;;;2209793;67;2003;-25
2023/03/15 05:06:44;;;;;;;;;;;;;;;;;;2206369;59;1676;-25
2023/03/15 05:09:17;;;;;;;;;;;;;;;;;;2209228;67;1231;-25
2023/03/15 05:11:48;;;;;;;;;;;;;;;;;;2209998;59;1525;-25
2023/03/15 05:14:18;;;;;;;;;;;;;;;;;;2210058;67;1579;-25
2023/03/15 05:16:51;;;;;;;;;;;;;;;;;;2209768;67;1150;-25
2023/03/15 05:19:21;;;;;;;;;;;;;;;;;;2209818;67;1790;-25
2023/03/15 05:21:53;;;;;;;;;;;;;;;;;;2209761;59;1354;-25
2023/03/15 05:24:23;;;;;;;;;;;;;;;;;;2210296;67;1933;-25
2023/03/15 05:26:54;;;;;;;;;;;;;;;;;;2210465;67;1363;-25
2023/03/15 05:29:27;;;;;;;;;;;;;;;;;;2209758;67;1535;-25
2023/03/15 05:31:57;;;;;;;;;;;;;;;;;;2210174;66;1410;-25
2023/03/15 05:34:28;;;;;;;;;;;;;;;;;;2210460;67;1984;-25
2023/03/15 05:36:58;;;;;;;;;;;;;;;;;;2210591;67;1213;-25
2023/03/15 05:39:28;;;;;;;;;;;;;;;;;;2209943;67;1056;-25
2023/03/15 05:41:59;;;;;;;;;;;;;;;;;;2210406;67;1668;-25
2023/03/15 05:44:29;;;;;;;;;;;;;;;;;;2210650;67;1940;-24
2023/03/15 05:46:59;;;;;;;;;;;;;;;;;;2209961;67;1708;-24
2023/03/15 05:49:29;;;;;;;;;;;;;;;;;;2210095;67;1223;-24
2023/03/15 05:52:00;;;;;;;;;;;;;;;;;;2209198;67;1464;-24
2023/03/15 05:54:30;;;;;;;;;;;;;;;;;;2210418;67;1409;-25
2023/03/15 05:57:00;;;;;;;;;;;;;;;;;;2209684;67;1393;-24
2023/03/15 05:59:30;;;;;;;;;;;;;;;;;;2210351;67;1437;-25
2023/03/15 06:02:01;;;;;;;;;;;;;;;;;;2210929;67;1226;-24
2023/03/15 06:04:31;;;;;;;;;;;;;;;;;;2209638;67;1928;-25
2023/03/15 06:07:01;;;;;;;;;;;;;;;;;;2210278;67;1355;-25
2023/03/15 06:09:31;;;;;;;;;;;;;;;;;;2209686;67;1342;-25
2023/03/15 06:12:02;;;;;;;;;;;;;;;;;;2210166;59;1816;-25
2023/03/15 06:14:32;;;;;;;;;;;;;;;;;;2210077;67;1296;-25
2023/03/15 06:17:02;;;;;;;;;;;;;;;;;;2210225;67;1283;-25
2023/03/15 06:19:32;;;;;;;;;;;;;;;;;;2209731;67;1202;-25
2023/03/15 06:22:03;;;;;;;;;;;;;;;;;;2209513;67;1633;-25
2023/03/15 06:24:33;;;;;;;;;;;;;;;;;;2208983;67;2012;-25
2023/03/15 06:27:03;;;;;;;;;;;;;;;;;;2211025;67;1195;-24
2023/03/15 06:29:34;;;;;;;;;;;;;;;;;;2212108;67;1613;-25
2023/03/15 06:32:04;;;;;;;;;;;;;;;;;;2211115;67;1778;-25
2023/03/15 06:34:34;;;;;;;;;;;;;;;;;;2210416;61;1862;-25
2023/03/15 06:37:05;;;;;;;;;;;;;;;;;;2210302;67;1865;-25
2023/03/15 06:39:35;;;;;;;;;;;;;;;;;;2211494;59;1785;-25
2023/03/15 06:42:07;;;;;;;;;;;;;;;;;;2211190;67;1717;-25
2023/03/15 06:44:37;;;;;;;;;;;;;;;;;;2210656;67;1930;-25
2023/03/15 06:47:08;;;;;;;;;;;;;;;;;;2210517;67;1856;-25
2023/03/15 06:49:39;;;;;;;;;;;;;;;;;;2210842;59;1419;-25
2023/03/15 06:52:09;;;;;;;;;;;;;;;;;;2209237;67;1701;-25
2023/03/15 06:54:39;;;;;;;;;;;;;;;;;;2209794;67;1368;-25
2023/03/15 06:57:10;;;;;;;;;;;;;;;;;;2210042;67;1297;-25
2023/03/15 06:59:40;;;;;;;;;;;;;;;;;;2210125;67;2247;-25
2023/03/15 07:02:15;;;;;;;;;;;;;;;;;;2209873;67;1261;-25
2023/03/15 07:04:46;;;;;;;;;;;;;;;;;;2209733;67;1933;-25
2023/03/15 07:07:17;;;;;;;;;;;;;;;;;;2210106;67;1374;-25
2023/03/15 07:09:47;;;;;;;;;;;;;;;;;;2209362;59;2067;-25
2023/03/15 07:12:17;;;;;;;;;;;;;;;;;;2211247;59;1833;-26
2023/03/15 07:14:48;;;;;;;;;;;;;;;;;;2212568;66;1758;-26
2023/03/15 07:17:18;;;;;;;;;;;;;;;;;;2210630;67;1348;-25
2023/03/15 07:19:49;;;;;;;;;;;;;;;;;;2210548;67;1284;-25
2023/03/15 07:22:21;;;;;;;;;;;;;;;;;;2211668;59;1668;-25
2023/03/15 07:24:51;;;;;;;;;;;;;;;;;;2210695;67;1994;-25
2023/03/15 07:27:22;;;;;;;;;;;;;;;;;;2210976;67;1641;-25
2023/03/15 07:29:54;;;;;;;;;;;;;;;;;;2210256;67;1255;-25
2023/03/15 07:32:24;;;;;;;;;;;;;;;;;;2210431;67;1307;-25
2023/03/15 07:34:57;;;;;;;;;;;;;;;;;;2210714;67;1644;-25
2023/03/15 07:37:28;;;;;;;;;;;;;;;;;;2212779;59;1114;-26
2023/03/15 07:39:59;;;;;;;;;;;;;;;;;;2210003;59;1248;-26
2023/03/15 07:42:29;;;;;;;;;;;;;;;;;;2210349;67;1274;-26
2023/03/15 07:45:00;;;;;;;;;;;;;;;;;;2212465;66;2010;-26
2023/03/15 07:47:30;;;;;;;;;;;;;;;;;;2211073;67;1256;-26
2023/03/15 07:50:00;;;;;;;;;;;;;;;;;;2210399;67;1908;-25
2023/03/15 07:52:31;;;;;;;;;;;;;;;;;;2210566;67;1826;-26
2023/03/15 07:55:01;;;;;;;;;;;;;;;;;;2209985;67;1661;-25
2023/03/15 07:57:31;;;;;;;;;;;;;;;;;;2209623;67;1859;-25
2023/03/15 08:00:03;;;;;;;;;;;;;;;;;;2208898;67;1572;-26
2023/03/15 08:02:33;;;;;;;;;;;;;;;;;;2210559;67;1689;-25
2023/03/15 08:05:04;;;;;;;;;;;;;;;;;;2210372;67;1968;-25
2023/03/15 08:07:35;;;;;;;;;;;;;;;;;;2211182;67;1753;-25
2023/03/15 08:10:05;;;;;;;;;;;;;;;;;;2209840;67;1972;-26
2023/03/15 08:12:36;;;;;;;;;;;;;;;;;;2210843;59;1817;-26
2023/03/15 08:15:06;;;;;;;;;;;;;;;;;;2210576;67;1752;-25
2023/03/15 08:17:37;;;;;;;;;;;;;;;;;;2210453;67;1421;-25
2023/03/15 08:20:10;;;;;;;;;;;;;;;;;;2210488;67;1107;-26
2023/03/15 08:22:45;;;;;;;;;;;;;;;;;;2210280;67;1308;-25
2023/03/15 08:25:17;;;;;;;;;;;;;;;;;;2209839;67;2002;-25
2023/03/15 08:27:48;;;;;;;;;;;;;;;;;;2210293;67;1503;-26
2023/03/15 08:30:19;;;;;;;;;;;;;;;;;;2210470;67;1696;-25
2023/03/15 08:32:52;;;;;;;;;;;;;;;;;;2210504;67;1747;-25
2023/03/15 08:35:23;;;;;;;;;;;;;;;;;;2210427;67;1391;-25
2023/03/15 08:37:53;;;;;;;;;;;;;;;;;;2210627;67;1254;-25
2023/03/15 08:40:23;;;;;;;;;;;;;;;;;;2210479;59;1869;-26
2023/03/15 08:42:54;;;;;;;;;;;;;;;;;;2210922;67;1270;-25
2023/03/15 08:45:25;;;;;;;;;;;;;;;;;;2211954;67;1998;-25
2023/03/15 08:47:58;;;;;;;;;;;;;;;;;;2211795;67;1712;-25
2023/03/15 08:50:30;;;;;;;;;;;;;;;;;;2210718;67;1391;-24
2023/03/15 08:53:00;;;;;;;;;;;;;;;;;;2210225;67;1772;-23
2023/03/15 08:55:30;;;;;;;;;;;;;;;;;;2210429;67;1617;-23
2023/03/15 08:58:01;;;;;;;;;;;;;;;;;;2210636;67;1639;-23
2023/03/15 09:00:31;;;;;;;;;;;;;;;;;;2210126;67;1573;-24
2023/03/15 09:03:02;;;;;;;;;;;;;;;;;;2209323;59;1327;-23
2023/03/15 09:05:33;;;;;;;;;;;;;;;;;;2210811;67;1400;-23
2023/03/15 09:08:03;;;;;;;;;;;;;;;;;;2213075;66;1219;-25
2023/03/15 09:10:33;;;;;;;;;;;;;;;;;;2209908;67;1813;-25
2023/03/15 09:13:04;;;;;;;;;;;;;;;;;;2215875;53;1537;-89
2023/03/15 09:15:34;;;;;;;;;;;;;;;;;;2213231;59;1141;-88
2023/03/15 09:18:07;;;;;;;;;;;;;;;;;;2206505;67;1260;-89
2023/03/15 09:20:38;;;;;;;;;;;;;;;;;;2212158;60;1005;-87
2023/03/15 09:23:08;;;;;;;;;;;;;;;;;;2211570;67;1980;-88
2023/03/15 09:25:39;;;;;;;;;;;;;;;;;;2210749;67;1065;-88
2023/03/15 09:28:10;;;;;;;;;;;;;;;;;;2210208;67;1436;-87
2023/03/15 09:30:41;;;;;;;;;;;;;;;;;;2209827;59;1183;-89
2023/03/15 09:33:13;;;;;;;;;;;;;;;;;;2209203;59;1452;-88
2023/03/15 09:35:43;;;;;;;;;;;;;;;;;;2210480;67;1099;-89
2023/03/15 09:38:14;;;;;;;;;;;;;;;;;;2210147;59;1311;-89
2023/03/15 09:40:45;;;;;;;;;;;;;;;;;;2209393;67;1255;-88
2023/03/15 09:43:34;;;;;;;;;;;;;;;;;;2209221;67;1941;-89
2023/03/15 09:46:28;;;;;;;;;;;;;;;;;;2209774;67;1224;-88
2023/03/15 09:49:18;;;;;;;;;;;;;;;;;;2210163;67;1266;-88
2023/03/15 09:52:12;;;;;;;;;;;;;;;;;;2206788;67;1322;-89
2023/03/15 09:54:50;;;;;;;;;;;;;;;;;;2208724;67;1218;-87
2023/03/15 09:57:28;;;;;;;;;;;;;;;;;;2210039;67;1301;-88
2023/03/15 09:59:59;;;;;;;;;;;;;;;;;;2208611;67;1209;-87
2023/03/15 10:02:30;;;;;;;;;;;;;;;;;;2209240;59;1198;-87
2023/03/15 10:05:04;;;;;;;;;;;;;;;;;;2210169;59;1924;-88
2023/03/15 10:07:35;;;;;;;;;;;;;;;;;;2209233;67;1393;-88
2023/03/15 10:10:20;;;;;;;;;;;;;;;;;;2209220;67;1416;-90
2023/03/15 10:12:57;;;;;;;;;;;;;;;;;;2210176;59;1109;-87
2023/03/15 10:15:34;;;;;;;;;;;;;;;;;;2210111;59;1091;-88
2023/03/15 10:18:26;;;;;;;;;;;;;;;;;;2211714;66;1244;-90
2023/03/15 10:21:03;;;;;;;;;;;;;;;;;;2209862;67;1088;-88
2023/03/15 10:23:42;;;;;;;;;;;;;;;;;;2210200;59;1991;-88
2023/03/15 10:26:14;;;;;;;;;;;;;;;;;;2209793;67;1120;-89
2023/03/15 10:28:44;;;;;;;;;;;;;;;;;;2206274;59;1331;-88
2023/03/15 10:31:18;;;;;;;;;;;;;;;;;;2209692;59;1203;-89
2023/03/15 10:33:49;;;;;;;;;;;;;;;;;;2206888;59;1303;-89
2023/03/15 10:36:21;;;;;;;;;;;;;;;;;;2211469;59;1109;-88
2023/03/15 10:38:51;;;;;;;;;;;;;;;;;;2214481;66;1281;-91
2023/03/15 10:41:42;;;;;;;;;;;;;;;;;;2215886;59;1115;-89
2023/03/15 10:44:17;;;;;;;;;;;;;;;;;;2211552;59;1923;-88
2023/03/15 10:47:08;;;;;;;;;;;;;;;;;;2210557;67;1104;-87
2023/03/15 10:49:39;;;;;;;;;;;;;;;;;;2211159;67;1434;-88
2023/03/15 10:52:30;;;;;;;;;;;;;;;;;;2210070;59;1259;-88
2023/03/15 10:55:03;;;;;;;;;;;;;;;;;;2210942;59;1003;-89
2023/03/15 10:57:37;;;;;;;;;;;;;;;;;;2210054;67;1289;-89
2023/03/15 11:00:22;;;;;;;;;;;;;;;;;;2210316;67;1162;-87
2023/03/15 11:03:03;;;;;;;;;;;;;;;;;;2209738;67;1264;-89
2023/03/15 11:05:38;;;;;;;;;;;;;;;;;;2209223;59;1976;-88
2023/03/15 11:08:14;;;;;;;;;;;;;;;;;;2210703;59;1424;-89
2023/03/15 11:10:46;;;;;;;;;;;;;;;;;;2210463;67;1203;-87
2023/03/15 11:13:19;;;;;;;;;;;;;;;;;;2211873;59;1227;-87
2023/03/15 11:16:17;;;;;;;;;;;;;;;;;;2208653;67;1430;-90
2023/03/15 11:18:52;;;;;;;;;;;;;;;;;;2211208;67;1243;-87
2023/03/15 11:21:24;;;;;;;;;;;;;;;;;;2214237;66;1206;-88
2023/03/15 11:23:54;;;;;;;;;;;;;;;;;;2211371;59;1930;-89
2023/03/15 11:26:25;;;;;;;;;;;;;;;;;;2211761;59;1152;-86
2023/03/15 11:28:59;;;;;;;;;;;;;;;;;;2214169;59;1134;-88
2023/03/15 11:31:30;;;;;;;;;;;;;;;;;;2214451;59;1130;-88
2023/03/15 11:34:04;;;;;;;;;;;;;;;;;;2207716;67;1278;-89
2023/03/15 11:36:37;;;;;;;;;;;;;;;;;;2208289;67;1300;-88
2023/03/15 11:39:11;;;;;;;;;;;;;;;;;;2211115;61;1517;-86
2023/03/15 11:41:46;;;;;;;;;;;;;;;;;;2212653;67;1370;-87
2023/03/15 11:44:35;;;;;;;;;;;;;;;;;;2219199;59;1931;-90
2023/03/15 11:47:08;;;;;;;;;;;;;;;;;;2219736;67;1260;-89
2023/03/15 11:49:55;;;;;;;;;;;;;;;;;;2220663;59;1111;-90
2023/03/15 11:52:26;;;;;;;;;;;;;;;;;;2218496;59;1014;-90
2023/03/15 11:54:59;;;;;;;;;;;;;;;;;;2213365;67;1013;-88
2023/03/15 11:57:38;;;;;;;;;;;;;;;;;;2213588;67;2163;-88
2023/03/15 12:00:18;;;;;;;;;;;;;;;;;;2212003;67;1054;-87
2023/03/15 12:02:54;;;;;;;;;;;;;;;;;;2210643;59;1335;-89
2023/03/15 12:05:52;;;;;;;;;;;;;;;;;;2215076;59;1979;-88
2023/03/15 12:09:46;;;;;;;;;;;;;;;;;;2213761;67;1348;-89
2023/03/15 12:12:24;;;;;;;;;;;;;;;;;;2210720;67;1356;-88
2023/03/15 12:15:07;;;;;;;;;;;;;;;;;;2210114;67;1236;-91
2023/03/15 12:17:41;;;;;;;;;;;;;;;;;;2211795;59;1223;-88
2023/03/15 12:20:17;;;;;;;;;;;;;;;;;;2209947;59;1129;-90
2023/03/15 12:22:49;;;;;;;;;;;;;;;;;;2210467;67;1033;-90
2023/03/15 12:25:22;;;;;;;;;;;;;;;;;;2211551;59;1999;-87
2023/03/15 12:27:55;;;;;;;;;;;;;;;;;;2211693;67;1268;-89
2023/03/15 12:30:40;;;;;;;;;;;;;;;;;;2211109;67;1102;-91
2023/03/15 12:33:15;;;;;;;;;;;;;;;;;;2215199;59;3653;-17
2023/03/15 12:35:47;;;;;;;;;;;;;;;;;;2214735;66;1265;-17
2023/03/15 12:38:19;;;;;;;;;;;;;;;;;;2215503;66;1794;-17
2023/03/15 12:40:52;;;;;;;;;;;;;;;;;;2213924;59;1250;-17
2023/03/15 12:43:48;;;;;;;;;;;;;;;;;;2214299;59;2245;-17
2023/03/15 12:46:37;;;;;;;;;;;;;;;;;;2217467;53;1607;-69
2023/03/15 12:49:13;;;;;;;;;;;;;;;;;;2212882;66;1264;-69
2023/03/15 12:52:04;;;;;;;;;;;;;;;;;;2212248;67;1222;-69
2023/03/15 12:54:49;;;;;;;;;;;;;;;;;;2212582;59;1146;-69
2023/03/15 12:57:22;;;;;;;;;;;;;;;;;;2212284;59;1150;-69
2023/03/15 13:00:03;;;;;;;;;;;;;;;;;;2212709;67;1202;-69
2023/03/15 13:02:37;;;;;;;;;;;;;;;;;;2212619;67;1076;-69
2023/03/15 13:05:26;;;;;;;;;;;;;;;;;;2212277;66;1939;-69
2023/03/15 13:08:16;;;;;;;;;;;;;;;;;;2212034;67;1291;-69
2023/03/15 13:10:49;;;;;;;;;;;;;;;;;;2211917;59;1517;-69
2023/03/15 13:13:29;;;;;;;;;;;;;;;;;;2209653;67;1470;-69
2023/03/15 13:16:00;;;;;;;;;;;;;;;;;;2212252;67;1062;-69
2023/03/15 13:18:34;;;;;;;;;;;;;;;;;;2212629;67;1202;-69
2023/03/15 13:21:13;;;;;;;;;;;;;;;;;;2212777;67;1205;-69
2023/03/15 13:23:48;;;;;;;;;;;;;;;;;;2212546;67;1949;-69
2023/03/15 13:26:33;;;;;;;;;;;;;;;;;;2212796;66;1230;-69
2023/03/15 13:29:10;;;;;;;;;;;;;;;;;;2214870;66;1435;-69
2023/03/15 13:31:40;;;;;;;;;;;;;;;;;;2212253;66;1080;-69
2023/03/15 13:34:26;;;;;;;;;;;;;;;;;;2212377;67;1847;-69
2023/03/15 13:36:57;;;;;;;;;;;;;;;;;;2211590;67;1389;-69
2023/03/15 13:39:29;;;;;;;;;;;;;;;;;;2212529;67;1233;-69
2023/03/15 13:42:04;;;;;;;;;;;;;;;;;;2212335;59;1941;-68
2023/03/15 13:44:34;;;;;;;;;;;;;;;;;;2212557;66;1928;-69
2023/03/15 13:47:05;;;;;;;;;;;;;;;;;;2212350;59;1214;-69
2023/03/15 13:49:35;;;;;;;;;;;;;;;;;;2211661;59;1657;-69
2023/03/15 13:52:10;;;;;;;;;;;;;;;;;;2211531;67;1135;-68
2023/03/15 13:54:42;;;;;;;;;;;;;;;;;;2211982;66;974;-69
2023/03/15 13:57:15;;;;;;;;;;;;;;;;;;2212037;66;1302;-69
2023/03/15 13:59:51;;;;;;;;;;;;;;;;;;2211803;67;1191;-69
2023/03/15 14:02:24;;;;;;;;;;;;;;;;;;2211980;67;1180;-69
2023/03/15 14:04:57;;;;;;;;;;;;;;;;;;2211753;67;1929;-69
2023/03/15 14:07:32;;;;;;;;;;;;;;;;;;2212146;67;1090;-69
2023/03/15 14:10:21;;;;;;;;;;;;;;;;;;2211294;66;1346;-69
2023/03/15 14:12:52;;;;;;;;;;;;;;;;;;2212411;59;1116;-69
2023/03/15 14:15:23;;;;;;;;;;;;;;;;;;2211752;67;1024;-69
2023/03/15 14:17:58;;;;;;;;;;;;;;;;;;2212019;67;1268;-69
2023/03/15 14:20:37;;;;;;;;;;;;;;;;;;2212276;59;1104;-68
2023/03/15 14:23:28;;;;;;;;;;;;;;;;;;2212717;59;1030;-69
2023/03/15 14:26:04;;;;;;;;;;;;;;;;;;2211976;66;1165;-69
2023/03/15 14:28:34;;;;;;;;;;;;;;;;;;2211849;59;1250;-69
2023/03/15 14:31:07;;;;;;;;;;;;;;;;;;2211724;67;1372;-69
2023/03/15 14:33:41;;;;;;;;;;;;;;;;;;2211848;67;1068;-68
2023/03/15 14:36:34;;;;;;;;;;;;;;;;;;2211875;67;1123;-68
2023/03/15 14:39:15;;;;;;;;;;;;;;;;;;2211403;66;2217;-68
2023/03/15 14:41:46;;;;;;;;;;;;;;;;;;2212117;66;1226;-68
2023/03/15 14:44:16;;;;;;;;;;;;;;;;;;2212347;59;1929;-68
2023/03/15 14:46:49;;;;;;;;;;;;;;;;;;2212052;59;1192;-69
2023/03/15 14:49:24;;;;;;;;;;;;;;;;;;2213062;67;1239;-69
2023/03/15 14:51:59;;;;;;;;;;;;;;;;;;2212343;67;1099;-68
2023/03/15 14:54:33;;;;;;;;;;;;;;;;;;2213277;67;1155;-68
2023/03/15 14:57:03;;;;;;;;;;;;;;;;;;2212457;59;1231;-69
2023/03/15 14:59:36;;;;;;;;;;;;;;;;;;2212803;59;1220;-68
2023/03/15 15:02:13;;;;;;;;;;;;;;;;;;2214714;66;1106;-69
2023/03/15 15:04:46;;;;;;;;;;;;;;;;;;2211769;67;1984;-69
2023/03/15 15:07:19;;;;;;;;;;;;;;;;;;2212159;67;1073;-68
2023/03/15 15:09:58;;;;;;;;;;;;;;;;;;2211603;59;1348;-69
2023/03/15 15:12:29;;;;;;;;;;;;;;;;;;2212338;67;1150;-68
2023/03/15 15:14:59;;;;;;;;;;;;;;;;;;2211767;67;1037;-69
2023/03/15 15:17:35;;;;;;;;;;;;;;;;;;2212355;67;1291;-69
2023/03/15 15:20:16;;;;;;;;;;;;;;;;;;2212276;67;1263;-68
2023/03/15 15:22:47;;;;;;;;;;;;;;;;;;2212208;66;1036;-68
2023/03/15 15:25:19;;;;;;;;;;;;;;;;;;2212381;66;2193;-68
2023/03/15 15:27:49;;;;;;;;;;;;;;;;;;2211657;58;1293;-69
2023/03/15 15:30:21;;;;;;;;;;;;;;;;;;2215141;66;1076;-68
2023/03/15 15:32:51;;;;;;;;;;;;;;;;;;2212114;67;1029;-69
2023/03/15 15:35:24;;;;;;;;;;;;;;;;;;2212094;67;1066;-68
2023/03/15 15:37:54;;;;;;;;;;;;;;;;;;2211921;67;1249;-69
2023/03/15 15:40:26;;;;;;;;;;;;;;;;;;2215209;66;1144;-69
2023/03/15 15:43:07;;;;;;;;;;;;;;;;;;2212195;67;1097;-68
2023/03/15 15:45:38;;;;;;;;;;;;;;;;;;2212006;67;1984;-68
2023/03/15 15:48:08;;;;;;;;;;;;;;;;;;2212229;59;1240;-69
2023/03/15 15:50:45;;;;;;;;;;;;;;;;;;2215212;66;1068;-68
2023/03/15 15:53:19;;;;;;;;;;;;;;;;;;2212222;67;1180;-71
2023/03/15 15:56:02;;;;;;;;;;;;;;;;;;2212090;67;1245;-69
2023/03/15 15:58:32;;;;;;;;;;;;;;;;;;2211815;67;1305;-69
2023/03/15 16:01:02;;;;;;;;;;;;;;;;;;2211850;67;1118;-68
2023/03/15 16:03:42;;;;;;;;;;;;;;;;;;2212029;67;1927;-68
2023/03/15 16:06:14;;;;;;;;;;;;;;;;;;2212957;67;1228;-69
2023/03/15 16:08:46;;;;;;;;;;;;;;;;;;2212470;67;1244;-69
2023/03/15 16:11:17;;;;;;;;;;;;;;;;;;2212646;67;1086;-69
2023/03/15 16:13:55;;;;;;;;;;;;;;;;;;2213284;66;1297;-69
2023/03/15 16:17:00;;;;;;;;;;;;;;;;;;2212782;67;1113;-69
2023/03/15 16:19:34;;;;;;;;;;;;;;;;;;2212793;67;1251;-69
2023/03/15 16:22:05;;;;;;;;;;;;;;;;;;2212882;66;1058;-69
2023/03/15 16:24:37;;;;;;;;;;;;;;;;;;2212647;66;1933;-69
2023/03/15 16:27:21;;;;;;;;;;;;;;;;;;2212224;66;1171;-67
2023/03/15 16:29:55;;;;;;;;;;;;;;;;;;2212714;67;1266;-69
2023/03/15 16:32:25;;;;;;;;;;;;;;;;;;2212602;66;1190;-69
2023/03/15 16:34:58;;;;;;;;;;;;;;;;;;2211397;67;1040;-69
2023/03/15 16:37:32;;;;;;;;;;;;;;;;;;2212069;59;1060;-69
2023/03/15 16:40:08;;;;;;;;;;;;;;;;;;2211934;67;1099;-68
2023/03/15 16:42:42;;;;;;;;;;;;;;;;;;2213157;66;1159;-69
2023/03/15 16:45:12;;;;;;;;;;;;;;;;;;2219000;66;1986;-67
2023/03/15 16:47:43;;;;;;;;;;;;;;;;;;2212635;66;1232;-69
2023/03/15 16:50:13;;;;;;;;;;;;;;;;;;2212492;67;1182;-67
2023/03/15 16:52:44;;;;;;;;;;;;;;;;;;2212236;66;1323;-68
2023/03/15 16:55:16;;;;;;;;;;;;;;;;;;2212766;67;1059;-69
2023/03/15 16:57:47;;;;;;;;;;;;;;;;;;2211904;67;1252;-68
2023/03/15 17:00:19;;;;;;;;;;;;;;;;;;2212602;67;1216;-68
2023/03/15 17:02:53;;;;;;;;;;;;;;;;;;2212422;67;976;-68
2023/03/15 17:05:23;;;;;;;;;;;;;;;;;;2214898;66;1937;-68
2023/03/15 17:07:54;;;;;;;;;;;;;;;;;;2212254;59;1242;-69
2023/03/15 17:10:26;;;;;;;;;;;;;;;;;;2212043;67;1241;-68
2023/03/15 17:13:00;;;;;;;;;;;;;;;;;;2212199;67;1283;-68
2023/03/15 17:15:31;;;;;;;;;;;;;;;;;;2212401;66;1132;-68
2023/03/15 17:18:02;;;;;;;;;;;;;;;;;;2212352;67;1232;-69
2023/03/15 17:20:32;;;;;;;;;;;;;;;;;;2212165;66;1081;-69
2023/03/15 17:23:03;;;;;;;;;;;;;;;;;;2212090;66;1072;-69
2023/03/15 17:25:34;;;;;;;;;;;;;;;;;;2211832;66;1990;-68
2023/03/15 17:28:04;;;;;;;;;;;;;;;;;;2212006;59;1242;-69
2023/03/15 17:30:35;;;;;;;;;;;;;;;;;;2211869;59;1132;-68
2023/03/15 17:33:06;;;;;;;;;;;;;;;;;;2215261;66;1218;-68
2023/03/15 17:35:38;;;;;;;;;;;;;;;;;;2212030;67;1104;-68
2023/03/15 17:38:15;;;;;;;;;;;;;;;;;;2212288;67;1150;-69
2023/03/15 17:40:45;;;;;;;;;;;;;;;;;;2211998;67;1140;-69
2023/03/15 17:43:16;;;;;;;;;;;;;;;;;;2212372;67;1215;-68
2023/03/15 17:45:46;;;;;;;;;;;;;;;;;;2212150;66;1991;-68